createdAt,value
2022-10-28T00:01:04.639Z,67.59
2022-10-28T00:03:06.169Z,68.53
2022-10-28T00:05:07.552Z,69.24
2022-10-28T00:07:08.847Z,69.92
2022-10-28T00:09:12.205Z,70.18
2022-10-28T00:11:13.773Z,70.69
2022-10-28T00:13:15.063Z,70.89
2022-10-28T00:15:16.344Z,70.94
2022-10-28T00:17:17.697Z,71.59
2022-10-28T00:19:18.990Z,71.66
2022-10-28T00:21:20.261Z,72.03
2022-10-28T00:23:21.554Z,72.59
2022-10-28T00:25:24.932Z,72.25
2022-10-28T00:27:26.299Z,73.15
2022-10-28T00:29:27.561Z,72.98
2022-10-28T00:31:28.893Z,73.46
2022-10-28T00:33:30.167Z,73.67
2022-10-28T00:35:31.431Z,73.79
2022-10-28T00:37:32.706Z,73.56
2022-10-28T00:39:33.977Z,74.00
2022-10-28T00:41:35.260Z,74.17
2022-10-28T00:43:36.577Z,74.29
2022-10-28T00:45:37.854Z,74.25
2022-10-28T00:47:39.118Z,74.52
2022-10-28T00:49:40.430Z,74.65
2022-10-28T00:51:41.759Z,74.72
2022-10-28T00:53:43.078Z,74.74
2022-10-28T00:55:44.338Z,74.94
2022-10-28T00:57:45.593Z,75.33
2022-10-28T00:59:46.898Z,75.29
2022-10-28T01:01:48.295Z,75.48
2022-10-28T01:03:49.633Z,76.11
2022-10-28T01:05:52.123Z,76.47
2022-10-28T01:07:53.705Z,75.74
2022-10-28T01:09:55.102Z,75.94
2022-10-28T01:11:56.427Z,76.24
2022-10-28T01:13:57.690Z,76.11
2022-10-28T01:15:58.988Z,76.47
2022-10-28T01:18:00.263Z,76.78
2022-10-28T01:20:01.521Z,76.02
2022-10-28T01:22:02.813Z,76.53
2022-10-28T01:24:04.089Z,76.39
2022-10-28T01:26:05.393Z,76.65
2022-10-28T01:28:06.677Z,76.82
2022-10-28T01:30:08.162Z,76.96
2022-10-28T01:32:09.487Z,77.15
2022-10-28T01:34:10.968Z,77.46
2022-10-28T01:36:12.244Z,77.95
2022-10-28T01:38:14.323Z,77.65
2022-10-28T01:40:15.658Z,77.72
2022-10-28T01:42:16.933Z,77.99
2022-10-28T01:44:18.223Z,78.00
2022-10-28T01:46:19.557Z,78.16
2022-10-28T01:48:21.376Z,78.25
2022-10-28T01:50:22.637Z,78.30
2022-10-28T01:52:23.994Z,78.37
2022-10-28T01:54:25.272Z,78.77
2022-10-28T01:56:26.547Z,78.81
2022-10-28T01:58:27.863Z,78.20
2022-10-28T02:00:29.302Z,78.45
2022-10-28T02:02:30.607Z,78.30
2022-10-28T02:04:31.900Z,78.64
2022-10-28T02:06:34.771Z,78.17
2022-10-28T02:08:36.135Z,78.53
2022-10-28T02:10:37.422Z,78.29
2022-10-28T02:12:38.865Z,78.63
2022-10-28T02:14:40.168Z,78.42
2022-10-28T02:16:41.442Z,78.64
2022-10-28T02:18:42.765Z,78.44
2022-10-28T02:20:44.049Z,78.66
2022-10-28T02:22:45.358Z,78.80
2022-10-28T02:24:47.398Z,78.65
2022-10-28T02:26:48.676Z,78.56
2022-10-28T02:28:50.005Z,78.56
2022-10-28T02:30:51.311Z,78.66
2022-10-28T02:32:52.717Z,78.28
2022-10-28T02:34:54.276Z,78.48
2022-10-28T02:36:55.538Z,78.27
2022-10-28T02:38:56.836Z,78.30
2022-10-28T02:40:58.132Z,78.56
2022-10-28T02:42:59.411Z,78.79
2022-10-28T02:45:00.810Z,78.05
2022-10-28T02:47:02.091Z,78.33
2022-10-28T02:49:03.394Z,78.27
2022-10-28T02:51:04.693Z,78.49
2022-10-28T02:53:06.008Z,78.57
2022-10-28T02:55:07.348Z,78.27
2022-10-28T02:57:08.650Z,78.58
2022-10-28T02:59:11.097Z,78.37
2022-10-28T03:01:12.521Z,78.58
2022-10-28T03:03:13.902Z,78.60
2022-10-28T03:05:15.198Z,78.48
2022-10-28T03:07:16.529Z,78.48
2022-10-28T03:09:17.787Z,78.25
2022-10-28T03:11:20.161Z,78.24
2022-10-28T03:13:21.441Z,78.33
2022-10-28T03:15:22.714Z,78.07
2022-10-28T03:17:23.975Z,78.61
2022-10-28T03:19:25.516Z,78.35
2022-10-28T03:21:26.832Z,78.73
2022-10-28T03:23:29.248Z,78.26
2022-10-28T03:25:31.461Z,78.25
2022-10-28T03:27:32.733Z,78.61
2022-10-28T03:29:34.040Z,78.39
2022-10-28T03:31:35.381Z,78.59
2022-10-28T03:33:36.668Z,79.10
2022-10-28T03:35:38.142Z,78.45
2022-10-28T03:37:39.409Z,78.37
2022-10-28T03:39:40.762Z,79.11
2022-10-28T03:41:42.050Z,78.87
2022-10-28T03:43:43.336Z,79.03
2022-10-28T03:45:44.621Z,78.86
2022-10-28T03:47:45.939Z,79.03
2022-10-28T03:49:47.398Z,78.94
2022-10-28T03:51:48.670Z,79.06
2022-10-28T03:53:49.933Z,78.68
2022-10-28T03:55:51.211Z,79.06
2022-10-28T03:57:52.752Z,79.03
2022-10-28T03:59:54.227Z,78.93
2022-10-28T04:01:55.708Z,79.11
2022-10-28T04:03:57.515Z,79.04
2022-10-28T04:05:58.790Z,79.24
2022-10-28T04:08:00.134Z,79.07
2022-10-28T04:10:01.437Z,79.05
2022-10-28T04:12:02.803Z,79.14
2022-10-28T04:14:04.181Z,78.90
2022-10-28T04:16:05.460Z,79.11
2022-10-28T04:18:06.768Z,79.02
2022-10-28T04:20:08.098Z,78.95
2022-10-28T04:22:09.776Z,79.06
2022-10-28T04:24:11.061Z,78.84
2022-10-28T04:26:12.409Z,79.04
2022-10-28T04:28:13.682Z,79.10
2022-10-28T04:30:14.977Z,78.89
2022-10-28T04:32:16.294Z,79.06
2022-10-28T04:34:17.803Z,79.08
2022-10-28T04:36:19.262Z,79.07
2022-10-28T04:38:20.594Z,79.04
2022-10-28T04:40:21.937Z,78.97
2022-10-28T04:42:23.205Z,78.97
2022-10-28T04:44:24.544Z,79.01
2022-10-28T04:46:25.847Z,78.82
2022-10-28T04:48:27.111Z,78.98
2022-10-28T04:50:28.411Z,78.69
2022-10-28T04:52:29.738Z,78.40
2022-10-28T04:54:31.013Z,78.59
2022-10-28T04:56:33.327Z,78.62
2022-10-28T04:58:34.597Z,78.69
2022-10-28T05:00:35.906Z,78.86
2022-10-28T05:02:37.194Z,78.63
2022-10-28T05:04:38.497Z,78.75
2022-10-28T05:06:39.773Z,78.91
2022-10-28T05:08:41.106Z,78.66
2022-10-28T05:10:42.386Z,78.77
2022-10-28T05:12:43.651Z,78.71
2022-10-28T05:14:44.962Z,78.45
2022-10-28T05:16:46.250Z,78.85
2022-10-28T05:18:47.518Z,78.56
2022-10-28T05:20:52.834Z,78.63
2022-10-28T05:22:55.335Z,78.94
2022-10-28T05:24:56.815Z,78.92
2022-10-28T05:26:58.606Z,79.19
2022-10-28T05:28:59.899Z,78.70
2022-10-28T05:31:01.173Z,78.73
2022-10-28T05:33:02.642Z,78.93
2022-10-28T05:35:03.966Z,79.16
2022-10-28T05:37:05.242Z,78.96
2022-10-28T05:39:06.546Z,78.98
2022-10-28T05:41:07.843Z,79.13
2022-10-28T05:43:09.423Z,79.27
2022-10-28T05:45:10.699Z,79.15
2022-10-28T05:47:11.976Z,79.15
2022-10-28T05:49:13.244Z,79.23
2022-10-28T05:51:14.558Z,79.11
2022-10-28T05:53:15.826Z,79.18
2022-10-28T05:55:19.391Z,79.37
2022-10-28T05:57:20.678Z,79.21
2022-10-28T05:59:22.014Z,79.32
2022-10-28T06:01:23.397Z,79.40
2022-10-28T06:03:30.030Z,78.93
2022-10-28T06:05:32.559Z,79.62
2022-10-28T06:07:34.875Z,79.52
2022-10-28T06:09:36.179Z,79.36
2022-10-28T06:11:35.936Z,79.34
2022-10-28T06:13:37.227Z,79.42
2022-10-28T06:15:38.506Z,79.40
2022-10-28T06:17:39.863Z,79.42
2022-10-28T06:19:41.138Z,79.64
2022-10-28T06:21:42.451Z,79.45
2022-10-28T06:23:43.766Z,79.28
2022-10-28T06:25:45.139Z,79.50
2022-10-28T06:27:46.451Z,79.42
2022-10-28T06:29:47.777Z,79.38
2022-10-28T06:31:49.098Z,79.44
2022-10-28T06:33:50.430Z,79.24
2022-10-28T06:35:51.748Z,79.26
2022-10-28T06:37:53.808Z,79.07
2022-10-28T06:39:57.260Z,79.35
2022-10-28T06:41:58.608Z,79.21
2022-10-28T06:43:59.899Z,79.29
2022-10-28T06:46:01.245Z,79.13
2022-10-28T06:48:04.064Z,79.21
2022-10-28T06:50:05.347Z,78.47
2022-10-28T06:52:06.625Z,78.05
2022-10-28T06:54:07.936Z,78.20
2022-10-28T06:56:09.210Z,78.62
2022-10-28T06:58:10.485Z,78.70
2022-10-28T07:00:11.770Z,79.04
2022-10-28T07:02:13.272Z,78.89
2022-10-28T07:04:14.865Z,78.70
2022-10-28T07:06:16.189Z,78.83
2022-10-28T07:08:17.521Z,78.87
2022-10-28T07:10:18.845Z,78.95
2022-10-28T07:12:20.131Z,79.13
2022-10-28T07:14:21.485Z,79.01
2022-10-28T07:16:22.798Z,79.00
2022-10-28T07:18:24.262Z,79.11
2022-10-28T07:20:25.717Z,79.37
2022-10-28T07:22:27.025Z,79.44
2022-10-28T07:24:28.756Z,79.07
2022-10-28T07:26:30.083Z,79.15
2022-10-28T07:28:31.492Z,79.34
2022-10-28T07:30:32.785Z,79.58
2022-10-28T07:32:34.069Z,79.47
2022-10-28T07:34:35.406Z,79.34
2022-10-28T07:36:36.880Z,79.16
2022-10-28T07:38:38.355Z,79.80
2022-10-28T07:40:39.699Z,79.53
2022-10-28T07:42:40.976Z,78.46
2022-10-28T07:44:42.258Z,78.66
2022-10-28T07:46:43.516Z,78.94
2022-10-28T07:48:44.843Z,79.19
2022-10-28T07:50:46.149Z,79.32
2022-10-28T07:52:47.445Z,79.30
2022-10-28T07:54:48.785Z,79.07
2022-10-28T07:56:50.804Z,79.15
2022-10-28T07:58:52.853Z,79.24
2022-10-28T08:00:54.194Z,78.61
2022-10-28T08:02:55.541Z,78.56
2022-10-28T08:04:56.847Z,78.51
2022-10-28T08:06:58.190Z,78.46
2022-10-28T08:08:59.545Z,78.29
2022-10-28T08:11:00.885Z,77.71
2022-10-28T08:13:02.199Z,77.40
2022-10-28T08:15:03.476Z,75.62
2022-10-28T08:17:04.755Z,75.33
2022-10-28T08:19:07.819Z,74.11
2022-10-28T08:21:09.312Z,73.05
2022-10-28T08:23:10.613Z,71.54
2022-10-28T08:25:11.884Z,71.20
2022-10-28T08:27:13.153Z,73.51
2022-10-28T08:29:14.436Z,72.94
2022-10-28T08:31:15.787Z,72.73
2022-10-28T08:33:17.068Z,72.46
2022-10-28T08:35:18.371Z,72.48
2022-10-28T08:37:19.713Z,72.63
2022-10-28T08:39:21.014Z,72.90
2022-10-28T08:41:22.349Z,73.51
2022-10-28T08:43:40.066Z,73.31
2022-10-28T08:45:44.981Z,73.47
2022-10-28T08:47:46.350Z,73.38
2022-10-28T08:49:49.348Z,73.36
2022-10-28T08:51:50.929Z,73.27
2022-10-28T08:53:52.210Z,72.80
2022-10-28T08:55:53.482Z,73.15
2022-10-28T08:57:54.792Z,73.02
2022-10-28T08:59:56.889Z,73.27
2022-10-28T09:01:58.216Z,73.06
2022-10-28T09:03:59.511Z,72.80
2022-10-28T09:06:00.897Z,73.04
2022-10-28T09:08:02.196Z,72.63
2022-10-28T09:10:03.480Z,73.16
2022-10-28T09:12:04.762Z,73.15
2022-10-28T09:14:06.294Z,73.13
2022-10-28T09:16:08.569Z,73.20
2022-10-28T09:18:11.605Z,72.71
2022-10-28T09:20:12.878Z,73.25
2022-10-28T09:22:18.290Z,73.30
2022-10-28T09:24:21.338Z,73.11
2022-10-28T09:26:22.654Z,73.43
2022-10-28T09:28:23.933Z,72.77
2022-10-28T09:30:28.007Z,73.41
2022-10-28T09:32:29.276Z,72.87
2022-10-28T09:34:30.628Z,73.39
2022-10-28T09:36:31.897Z,73.19
2022-10-28T09:38:33.163Z,72.93
2022-10-28T09:40:34.436Z,72.99
2022-10-28T09:42:35.805Z,73.11
2022-10-28T09:44:37.118Z,73.15
2022-10-28T09:46:38.423Z,73.40
2022-10-28T09:48:39.680Z,73.02
2022-10-28T09:50:40.989Z,73.30
2022-10-28T09:52:42.261Z,73.03
2022-10-28T09:54:43.537Z,73.17
2022-10-28T09:56:44.869Z,72.79
2022-10-28T09:58:46.776Z,73.10
2022-10-28T10:00:48.076Z,72.83
2022-10-28T10:02:49.404Z,72.88
2022-10-28T10:04:50.756Z,73.04
2022-10-28T10:06:52.032Z,72.63
2022-10-28T10:08:53.305Z,72.99
2022-10-28T10:10:54.600Z,72.66
2022-10-28T10:12:56.058Z,72.58
2022-10-28T10:14:57.730Z,72.67
2022-10-28T10:16:59.048Z,72.62
2022-10-28T10:19:00.324Z,72.47
2022-10-28T10:21:01.653Z,72.82
2022-10-28T10:23:02.949Z,72.42
2022-10-28T10:25:04.283Z,72.58
2022-10-28T10:27:05.634Z,72.39
2022-10-28T10:29:06.909Z,72.53
2022-10-28T10:31:08.190Z,72.55
2022-10-28T10:33:09.571Z,72.32
2022-10-28T10:35:12.826Z,72.31
2022-10-28T10:37:14.110Z,72.41
2022-10-28T10:39:15.417Z,72.65
2022-10-28T10:41:16.727Z,72.29
2022-10-28T10:43:18.036Z,72.42
2022-10-28T10:45:19.319Z,72.33
2022-10-28T10:47:20.763Z,72.54
2022-10-28T10:49:22.085Z,72.41
2022-10-28T10:51:23.428Z,72.30
2022-10-28T10:53:24.736Z,72.35
2022-10-28T10:55:26.057Z,72.29
2022-10-28T10:57:27.382Z,72.40
2022-10-28T10:59:28.659Z,72.13
2022-10-28T11:01:30.068Z,72.54
2022-10-28T11:03:31.521Z,72.22
2022-10-28T11:05:38.168Z,72.30
2022-10-28T11:07:42.676Z,72.06
2022-10-28T11:09:44.021Z,72.22
2022-10-28T11:11:45.284Z,72.29
2022-10-28T11:13:46.550Z,71.99
2022-10-28T11:15:47.821Z,72.30
2022-10-28T11:17:49.092Z,72.06
2022-10-28T11:19:50.359Z,72.16
2022-10-28T11:21:51.700Z,72.08
2022-10-28T11:23:52.993Z,72.34
2022-10-28T11:25:54.305Z,72.74
2022-10-28T11:27:57.602Z,72.89
2022-10-28T11:30:01.265Z,73.59
2022-10-28T11:32:02.562Z,73.71
2022-10-28T11:34:03.836Z,73.53
2022-10-28T11:36:05.114Z,74.03
2022-10-28T11:38:06.584Z,74.18
2022-10-28T11:40:07.862Z,74.46
2022-10-28T11:42:09.250Z,74.34
2022-10-28T11:44:10.539Z,74.22
2022-10-28T11:46:11.813Z,73.52
2022-10-28T11:48:13.145Z,73.17
2022-10-28T11:50:14.448Z,73.22
2022-10-28T11:52:15.715Z,72.07
2022-10-28T11:54:17.061Z,72.90
2022-10-28T11:56:18.391Z,73.00
2022-10-28T11:58:19.725Z,73.04
2022-10-28T12:00:21.059Z,73.41
2022-10-28T12:02:22.424Z,73.55
2022-10-28T12:04:23.785Z,73.75
2022-10-28T12:06:25.098Z,73.90
2022-10-28T12:08:26.357Z,74.30
2022-10-28T12:10:27.630Z,74.28
2022-10-28T12:12:28.950Z,74.28
2022-10-28T12:14:30.224Z,74.30
2022-10-28T12:16:31.509Z,74.12
2022-10-28T12:18:33.305Z,73.73
2022-10-28T12:20:34.600Z,73.47
2022-10-28T12:22:35.859Z,73.10
2022-10-28T12:24:37.244Z,72.51
2022-10-28T12:26:38.572Z,72.80
2022-10-28T12:28:39.865Z,72.26
2022-10-28T12:30:41.149Z,71.95
2022-10-28T12:32:42.624Z,72.36
2022-10-28T12:34:43.893Z,72.19
2022-10-28T12:36:45.177Z,72.97
2022-10-28T12:38:46.494Z,73.03
2022-10-28T12:40:47.762Z,73.15
2022-10-28T12:42:49.073Z,73.51
2022-10-28T12:44:52.947Z,73.35
2022-10-28T12:46:55.414Z,73.69
2022-10-28T12:48:56.820Z,73.79
2022-10-28T12:50:58.115Z,73.82
2022-10-28T12:52:59.636Z,73.75
2022-10-28T12:55:01.012Z,73.85
2022-10-28T12:57:02.312Z,73.90
2022-10-28T13:01:10.494Z,73.59
2022-10-28T13:03:12.001Z,73.18
2022-10-28T13:05:13.276Z,73.26
2022-10-28T13:07:14.603Z,73.41
2022-10-28T13:09:15.910Z,73.46
2022-10-28T13:11:17.181Z,73.07
2022-10-28T13:13:18.518Z,73.63
2022-10-28T13:15:19.920Z,73.71
2022-10-28T13:17:21.189Z,73.96
2022-10-28T13:19:23.780Z,73.96
2022-10-28T13:21:25.088Z,74.18
2022-10-28T13:23:27.440Z,74.27
2022-10-28T13:25:28.772Z,74.65
2022-10-28T13:27:30.097Z,74.49
2022-10-28T13:29:31.408Z,74.68
2022-10-28T13:31:32.681Z,74.26
2022-10-28T13:33:33.989Z,74.83
2022-10-28T13:35:35.301Z,74.85
2022-10-28T13:37:36.637Z,74.60
2022-10-28T13:39:37.908Z,74.55
2022-10-28T13:41:41.007Z,75.02
2022-10-28T13:43:44.782Z,74.64
2022-10-28T13:45:48.281Z,74.99
2022-10-28T13:47:49.610Z,74.84
2022-10-28T13:49:50.925Z,74.78
2022-10-28T13:51:52.253Z,75.00
2022-10-28T13:53:54.128Z,75.30
2022-10-28T13:55:55.400Z,75.07
2022-10-28T13:57:56.874Z,74.99
2022-10-28T13:59:58.314Z,75.26
2022-10-28T14:02:32.476Z,75.51
2022-10-28T14:04:20.860Z,75.31
2022-10-28T14:06:24.906Z,75.24
2022-10-28T14:08:29.521Z,74.94
2022-10-28T14:10:30.788Z,75.15
2022-10-28T14:12:32.093Z,75.23
2022-10-28T14:14:33.388Z,75.02
2022-10-28T14:16:34.653Z,74.92
2022-10-28T14:18:43.629Z,74.97
2022-10-28T14:20:45.755Z,75.21
2022-10-28T14:22:47.087Z,75.31
2022-10-28T14:24:48.389Z,75.15
2022-10-28T14:26:49.674Z,74.95
2022-10-28T14:28:52.242Z,75.11
2022-10-28T14:30:54.141Z,75.19
2022-10-28T14:32:55.748Z,75.11
2022-10-28T14:34:57.177Z,75.25
2022-10-28T14:36:58.468Z,75.07
2022-10-28T14:38:59.768Z,75.24
2022-10-28T14:41:01.033Z,75.33
2022-10-28T14:43:02.301Z,75.48
2022-10-28T14:45:03.613Z,75.42
2022-10-28T14:47:04.921Z,75.32
2022-10-28T14:49:13.821Z,75.54
2022-10-28T14:51:15.433Z,75.58
2022-10-28T14:53:16.728Z,75.56
2022-10-28T14:55:18.002Z,75.40
2022-10-28T14:57:22.755Z,75.55
2022-10-28T14:59:24.284Z,75.59
2022-10-28T15:01:25.888Z,75.66
2022-10-28T15:03:27.233Z,75.50
2022-10-28T15:05:32.404Z,75.56
2022-10-28T15:07:37.831Z,75.35
2022-10-28T15:09:39.841Z,75.46
2022-10-28T15:11:41.116Z,75.30
2022-10-28T15:13:42.377Z,75.26
2022-10-28T15:15:43.682Z,75.23
2022-10-28T15:17:44.962Z,75.22
2022-10-28T15:19:46.449Z,74.00
2022-10-28T15:21:47.753Z,73.50
2022-10-28T15:23:49.017Z,73.52
2022-10-28T15:25:50.333Z,73.04
2022-10-28T15:27:51.837Z,72.02
2022-10-28T15:29:53.542Z,70.56
2022-10-28T15:31:54.858Z,70.31
2022-10-28T15:33:56.112Z,69.68
2022-10-28T15:35:58.349Z,69.59
2022-10-28T15:37:59.637Z,69.85
2022-10-28T15:40:06.202Z,70.37
2022-10-28T15:42:12.545Z,70.04
2022-10-28T15:44:13.829Z,70.93
2022-10-28T15:46:15.152Z,70.23
2022-10-28T15:48:16.425Z,70.05
2022-10-28T15:50:17.707Z,69.67
2022-10-28T15:52:19.051Z,70.03
2022-10-28T15:54:20.465Z,70.36
2022-10-28T15:56:21.765Z,70.05
2022-10-28T15:58:23.077Z,70.15
2022-10-28T16:00:24.404Z,70.11
2022-10-28T16:02:25.787Z,70.07
2022-10-28T16:04:27.126Z,70.28
2022-10-28T16:06:28.554Z,70.61
2022-10-28T16:08:29.917Z,71.28
2022-10-28T16:10:31.252Z,72.59
2022-10-28T16:12:32.567Z,72.17
2022-10-28T16:14:33.872Z,72.04
2022-10-28T16:16:35.154Z,71.99
2022-10-28T16:18:36.429Z,71.59
2022-10-28T16:20:37.724Z,71.49
2022-10-28T16:22:39.151Z,72.21
2022-10-28T16:24:40.429Z,72.51
2022-10-28T16:26:41.694Z,72.50
2022-10-28T16:28:45.348Z,72.59
2022-10-28T16:30:46.776Z,72.31
2022-10-28T16:32:48.754Z,74.07
2022-10-28T16:34:50.022Z,71.85
2022-10-28T16:36:54.242Z,71.62
2022-10-28T16:38:55.565Z,71.80
2022-10-28T16:40:56.847Z,71.85
2022-10-28T16:42:58.445Z,71.41
2022-10-28T16:44:59.837Z,71.67
2022-10-28T16:47:01.151Z,70.97
2022-10-28T16:49:02.464Z,71.57
2022-10-28T16:51:03.744Z,71.23
2022-10-28T16:53:05.022Z,72.38
2022-10-28T16:55:08.977Z,72.60
2022-10-28T16:57:10.287Z,72.25
2022-10-28T16:59:11.668Z,71.72
2022-10-28T17:01:13.386Z,72.36
2022-10-28T17:03:15.457Z,72.53
2022-10-28T17:05:16.940Z,73.07
2022-10-28T17:07:18.492Z,73.25
2022-10-28T17:09:20.009Z,72.89
2022-10-28T17:11:21.330Z,73.56
2022-10-28T17:13:22.686Z,73.40
2022-10-28T17:15:23.956Z,73.31
2022-10-28T17:17:25.429Z,73.25
2022-10-28T17:19:26.740Z,73.40
2022-10-28T17:21:28.026Z,73.17
2022-10-28T17:23:29.349Z,73.32
2022-10-28T17:25:30.668Z,73.25
2022-10-28T17:27:31.986Z,72.88
2022-10-28T17:29:33.280Z,73.25
2022-10-28T17:31:34.613Z,72.91
2022-10-28T17:33:35.885Z,73.33
2022-10-28T17:35:37.164Z,72.87
2022-10-28T17:37:41.368Z,72.97
2022-10-28T17:39:42.712Z,73.02
2022-10-28T17:41:56.031Z,71.37
2022-10-28T17:43:57.319Z,70.95
2022-10-28T17:45:59.699Z,71.09
2022-10-28T17:48:00.980Z,70.63
2022-10-28T17:50:02.326Z,71.28
2022-10-28T17:52:03.605Z,70.98
2022-10-28T17:54:06.116Z,71.38
2022-10-28T17:56:07.489Z,71.07
2022-10-28T17:58:14.918Z,71.43
2022-10-28T18:00:19.270Z,70.44
2022-10-28T18:02:20.609Z,70.50
2022-10-28T18:04:28.357Z,71.00
2022-10-28T18:06:29.893Z,71.17
2022-10-28T18:08:31.188Z,71.11
2022-10-28T18:10:32.480Z,71.10
2022-10-28T18:12:33.780Z,70.92
2022-10-28T18:14:35.088Z,70.99
2022-10-28T18:16:39.309Z,71.40
2022-10-28T18:18:42.517Z,71.42
2022-10-28T18:20:44.353Z,71.27
2022-10-28T18:22:45.695Z,70.68
2022-10-28T18:24:46.984Z,71.47
2022-10-28T18:26:48.264Z,72.22
2022-10-28T18:28:49.749Z,72.44
2022-10-28T18:30:51.020Z,72.34
2022-10-28T18:32:52.534Z,71.69
2022-10-28T18:34:54.117Z,71.61
2022-10-28T18:36:55.468Z,71.37
2022-10-28T18:38:56.871Z,71.43
2022-10-28T18:40:58.163Z,71.55
2022-10-28T18:42:59.471Z,71.18
2022-10-28T18:45:00.965Z,71.39
2022-10-28T18:47:02.257Z,71.27
2022-10-28T18:49:04.383Z,71.43
2022-10-28T18:51:09.450Z,71.51
2022-10-28T18:53:10.779Z,71.75
2022-10-28T18:55:12.058Z,71.44
2022-10-28T18:57:13.354Z,71.70
2022-10-28T18:59:14.670Z,71.67
2022-10-28T19:01:16.579Z,71.81
2022-10-28T19:03:18.150Z,71.23
2022-10-28T19:05:19.440Z,71.88
2022-10-28T19:07:20.774Z,71.30
2022-10-28T19:09:22.054Z,70.67
2022-10-28T19:11:23.374Z,70.31
2022-10-28T19:13:24.653Z,69.50
2022-10-28T19:15:25.932Z,68.68
2022-10-28T19:17:27.213Z,69.07
2022-10-28T19:19:38.351Z,67.75
2022-10-28T19:21:40.705Z,69.06
2022-10-28T19:23:41.979Z,69.75
2022-10-28T19:25:44.741Z,69.93
2022-10-28T19:27:46.024Z,70.00
2022-10-28T19:29:47.364Z,69.76
2022-10-28T19:31:48.754Z,70.56
2022-10-28T19:33:50.097Z,70.43
2022-10-28T19:35:51.373Z,70.08
2022-10-28T19:37:53.326Z,70.62
2022-10-28T19:39:56.582Z,71.19
2022-10-28T19:41:58.069Z,71.09
2022-10-28T19:43:59.377Z,71.27
2022-10-28T19:46:01.259Z,71.00
2022-10-28T19:48:02.542Z,71.21
2022-10-28T19:50:03.824Z,71.77
2022-10-28T19:52:05.215Z,71.50
2022-10-28T19:54:06.529Z,71.26
2022-10-28T19:56:07.881Z,70.88
2022-10-28T19:58:09.276Z,70.56
2022-10-28T20:00:10.613Z,70.57
2022-10-28T20:02:11.987Z,70.61
2022-10-28T20:04:13.378Z,70.50
2022-10-28T20:06:17.739Z,70.33
2022-10-28T20:08:19.008Z,69.98
2022-10-28T20:10:20.278Z,70.28
2022-10-28T20:12:21.563Z,70.42
2022-10-28T20:14:23.044Z,70.29
2022-10-28T20:16:24.707Z,70.17
2022-10-28T20:18:26.031Z,70.61
2022-10-28T20:20:27.316Z,70.60
2022-10-28T20:22:28.636Z,70.76
2022-10-28T20:24:29.967Z,70.84
2022-10-28T20:26:31.282Z,70.95
2022-10-28T20:28:32.608Z,71.04
2022-10-28T20:30:34.088Z,70.97
2022-10-28T20:32:36.366Z,70.68
2022-10-28T20:34:37.703Z,68.76
2022-10-28T20:36:39.046Z,67.06
2022-10-28T20:38:40.332Z,67.83
2022-10-28T20:40:41.675Z,66.77
2022-10-28T20:42:42.950Z,66.32
2022-10-28T20:44:44.229Z,69.19
2022-10-28T20:46:47.818Z,68.26
2022-10-28T20:48:49.335Z,67.58
2022-10-28T20:50:50.831Z,67.70
2022-10-28T20:52:52.257Z,68.16
2022-10-28T20:54:53.809Z,68.74
2022-10-28T20:56:55.068Z,69.46
2022-10-28T20:58:56.393Z,69.56
2022-10-28T21:00:57.762Z,69.84
2022-10-28T21:02:59.558Z,69.63
2022-10-28T21:05:01.313Z,69.94
2022-10-28T21:07:02.746Z,70.01
2022-10-28T21:09:07.425Z,70.64
2022-10-28T21:11:08.778Z,69.70
2022-10-28T21:13:10.085Z,68.90
2022-10-28T21:15:11.418Z,68.74
2022-10-28T21:17:12.721Z,69.72
2022-10-28T21:19:13.999Z,69.94
2022-10-28T21:21:15.331Z,70.28
2022-10-28T21:23:16.755Z,68.92
2022-10-28T21:25:18.054Z,68.93
2022-10-28T21:27:19.331Z,69.09
2022-10-28T21:29:20.667Z,68.86
2022-10-28T21:31:21.998Z,68.49
2022-10-28T21:33:23.288Z,69.23
2022-10-28T21:35:24.612Z,70.54
2022-10-28T21:37:25.868Z,70.34
2022-10-28T21:39:27.162Z,71.01
2022-10-28T21:41:28.469Z,70.66
2022-10-28T21:43:29.870Z,70.60
2022-10-28T21:45:31.233Z,70.65
2022-10-28T21:47:32.499Z,70.73
2022-10-28T21:49:33.823Z,70.41
2022-10-28T21:51:35.108Z,70.63
2022-10-28T21:53:36.414Z,70.50
2022-10-28T21:55:52.359Z,70.76
2022-10-28T21:57:54.667Z,70.57
2022-10-28T21:59:56.291Z,70.49
2022-10-28T22:01:57.779Z,70.39
2022-10-28T22:03:59.172Z,70.52
2022-10-28T22:06:00.644Z,71.03
2022-10-28T22:08:04.497Z,70.36
2022-10-28T22:10:06.490Z,70.95
2022-10-28T22:12:07.777Z,71.03
2022-10-28T22:14:09.270Z,71.00
2022-10-28T22:16:10.550Z,70.93
2022-10-28T22:18:11.846Z,70.58
2022-10-28T22:20:13.222Z,70.44
2022-10-28T22:22:14.578Z,70.59
2022-10-28T22:24:15.898Z,70.48
2022-10-28T22:26:17.216Z,70.28
2022-10-28T22:28:18.515Z,71.05
2022-10-28T22:30:19.786Z,70.54
2022-10-28T22:32:21.069Z,70.14
2022-10-28T22:34:22.336Z,70.14
2022-10-28T22:36:23.668Z,70.09
2022-10-28T22:38:24.943Z,69.53
2022-10-28T22:40:26.424Z,69.75
2022-10-28T22:42:27.705Z,70.02
2022-10-28T22:44:28.985Z,70.45
2022-10-28T22:46:30.305Z,70.40
2022-10-28T22:48:31.641Z,70.38
2022-10-28T22:50:32.945Z,70.43
2022-10-28T22:52:34.232Z,70.47
2022-10-28T22:54:35.505Z,70.57
2022-10-28T22:56:37.032Z,71.02
2022-10-28T22:58:38.381Z,70.77
2022-10-28T23:00:39.672Z,70.71
2022-10-28T23:02:41.011Z,68.08
2022-10-28T23:04:42.513Z,68.95
2022-10-28T23:06:43.833Z,70.25
2022-10-28T23:08:45.149Z,70.10
2022-10-28T23:10:46.421Z,70.16
2022-10-28T23:12:47.757Z,70.38
2022-10-28T23:14:49.040Z,70.66
2022-10-28T23:16:50.321Z,70.86
2022-10-28T23:18:52.919Z,71.08
2022-10-28T23:20:54.309Z,71.24
2022-10-28T23:22:56.416Z,71.60
2022-10-28T23:24:57.714Z,71.67
2022-10-28T23:26:59.057Z,72.26
2022-10-28T23:29:00.645Z,72.13
2022-10-28T23:31:02.447Z,72.42
2022-10-28T23:33:03.739Z,72.93
2022-10-28T23:35:05.089Z,72.80
2022-10-28T23:37:06.389Z,72.74
2022-10-28T23:39:07.675Z,73.38
2022-10-28T23:41:08.961Z,72.94
2022-10-28T23:43:10.294Z,73.56
2022-10-28T23:45:11.555Z,73.74
2022-10-28T23:47:12.849Z,73.61
2022-10-28T23:49:14.105Z,73.43
2022-10-28T23:51:15.530Z,73.65
2022-10-28T23:53:16.930Z,73.59
2022-10-28T23:55:18.314Z,73.23
2022-10-28T23:57:19.708Z,73.63
2022-10-28T23:59:20.992Z,73.94
